Terminal Aerodrome Forecast
Issued by NWS

Home | Current Version | Previous Version | Text Only | Print | Product List | Glossary On
Versions: 1 2 3 4 5 6 7 8 9 10 11 12 13 14 15 16 17 18 19 20 21 22 23
000
FTUS41 KALY 042046 AAA
TAFPSF
TAF AMD
KPSF 042046Z 0421/0518 23012G18KT P6SM BKN100
     FM050300 20006KT P6SM -RA BKN040 OVC060
     FM051000 32006KT P6SM VCSH SCT025 OVC040
     FM051500 34007KT P6SM SCT100 BKN250=

USA.gov is the U.S. government's official web portal to all federal, state and local government web resources and services.